Historyczne dane pomiarowe

Dodano dane terminowe – wersja testowa.

Dane z okresu 1951-2019

Wersja bazy: 1.34 [2019-03-16, lista zmian], aktualizacja planowana na 2019-04-15

Dane meteo z obszaru Polski uzyskane na podstawie danych udostępnionych przez Instytut Meteorologii i Gospodarki Wodnej – Państwowy Instytut Badawczy.

 

Wybierz Datę:    

       

TemperaturaWilgotnośćWiatrCiśnienieOpadyŚniegCzas trwania zjawisk
 Stacja t tx tn tng RH VA  wxwx mslp ppp RRR   cm mm wxwxwxwxwxwxwx
1991-03-15 8.2 16.2 3.1 1.3 81.3- 8.0 1.7---- 2.2------------
1991-03-14 4.6 12.4 -1.5 -2.5 86.8- 6.3 1.7---- 0.0------------
1991-03-13 6.2 7.9 4.6 3.9 86.0- 8.0 2.0---- 0.0------------
1991-03-12 5.0 8.1 1.7 1.0 89.0- 8.0 1.3---- 3.3------------
1991-03-11 2.1 3.2 0.7 0.5 92.8- 8.0 1.7---- 0.0------------
1991-03-10 2.5 4.0 0.9 -0.5 90.5- 8.0 4.0---- 0.2------------
1991-03-09 2.7 6.9 0.3 -1.4 79.8- 8.0 3.0---- 0.0------------
1991-03-08 1.6 5.2 -0.9 -2.2 72.3- 5.7 3.0---- 0.0------------
1991-03-07 1.4 4.8 -0.6 -2.0 73.3- 2.7 4.7---- 0.0------------
1991-03-06 0.6 3.5 -1.4 -4.5 81.8- 4.0 3.0---- 0.0------------
1991-03-05 1.4 3.5 0.3 -3.5 85.3- 6.0 0.7---- 0.0------------
1991-03-04 3.4 9.7 -0.2 -2.8 79.3- 6.7 1.7---- 0.0------------
1991-03-03 0.2 2.2 -2.1 -3.5 80.8- 6.0 2.3---- 0.0------------
1991-03-02 0.5 1.3 -0.4 -2.7 72.0- 8.0 2.3---- 0.0------------
1991-03-01 0.2 3.0 -0.9 -3.0 86.5- 6.7 1.7---- 0.0-- 2---------
1991-02-28 -0.1 1.0 -1.3 -2.2 84.8- 8.0 1.7---- 0.0-- 3---------
1991-02-27 -0.2 1.0 -0.9 -2.0 89.0- 8.0 5.0---- 0.6-- 2---------
1991-02-26 2.4 5.2 0.4 -0.2 79.8- 7.3 3.0---- 1.7------------
1991-02-25 5.1 10.0 0.7 -0.7 85.0- 7.7 2.3---- 1.3------------
1991-02-24 5.3 9.4 1.7 0.0 87.5- 5.3 2.7---- 0.0-- 6---------
1991-02-23 1.5 3.2 -4.1 -9.0 89.5- 8.0 3.0---- 0.3-- 12---------
1991-02-22 0.3 2.5 -4.8 -9.5 81.8- 7.3 1.3---- 0.0-- 14---------
1991-02-21 -1.3 2.5 -7.5-11.8 88.8- 7.7 1.3---- 0.0-- 15---------
1991-02-20 -1.2 2.0 -5.3 -8.5 76.8- 5.0 1.7---- 0.0-- 16---------
1991-02-19 -4.9 0.4-12.5-18.6 81.5- 7.7 2.7---- 0.0-- 16---------
1991-02-18 -1.9 1.5 -4.3-14.7 66.3- 3.3 2.3---- 0.0-- 16---------
1991-02-17 -2.1 -0.7 -8.8-17.4 84.3- 8.0 2.7---- 0.9-- 14---------
1991-02-16 -4.4 -2.4 -7.8-12.1 85.5- 8.0 0.7---- 0.0-- 14---------
1991-02-15 -4.0 -2.7 -5.3 -8.0 80.0- 7.7 4.0---- 0.4-- 13---------
1991-02-14 -2.8 -1.6 -4.5 -5.5 83.8- 8.0 3.3---- 0.3-- 13---------
1991-02-13 -7.1 -1.7-13.0-16.8 90.5- 8.0 0.7---- 0.6-- 12---------
1991-02-12 -8.8 -2.0-14.8-18.4 80.8- 4.0 2.7---- 0.0-- 12---------
1991-02-11 -2.4 -0.9 -3.3 -3.5 93.3- 8.0 3.3---- 3.3-- 7---------
1991-02-10 -3.2 -1.9 -5.9 -6.0 91.8- 8.0 2.0---- 0.0-- 7---------
1991-02-09 -4.7 -4.1 -6.1 -6.2 88.3- 8.0 2.7---- 1.6-- 5---------
1991-02-08 -6.5 -3.9 -9.3-10.5 74.8- 7.7 3.3---- 3.0-- 2---------
1991-02-07 -8.1 -5.4-10.5-14.4 72.0- 7.3 3.7---- 0.0-- 2---------
1991-02-06-10.5 -6.9-13.8-15.8 68.8- 7.3 4.0---- 0.0-- 2---------
1991-02-05 -8.4 -6.4-12.3-14.9 74.5- 5.3 2.7---- 0.0-- 2---------
1991-02-04 -7.1 -4.3-10.3-14.7 83.3- 5.7 2.7---- 0.0-- 2---------
1991-02-03 -6.6 0.1-14.3-17.9 81.5- 7.7 1.7---- 0.0-- 2---------
1991-02-02-12.9 -8.4-16.5-19.3 74.5- 3.0 1.0---- 0.0-- 2---------
1991-02-01-12.3 -9.0-16.3-19.8 69.0- 0.0 0.7---- 0.0-- 2---------
1991-01-31-13.0 -9.1-16.0-19.8 76.0- 3.0 0.7---- 0.0-- 2---------
1991-01-30 -7.9 0.3-12.5-17.1 78.3- 0.0 2.3---- 0.0-- 2---------
1991-01-29 1.2 2.0 -0.4 -1.5 85.8- 7.7 3.3---- 2.2------------
1991-01-28 1.4 3.5 0.3 -1.0 82.5- 7.7 2.7---- 1.4------------
1991-01-27 1.9 2.9 1.0 0.0 92.0- 8.0 2.3---- 0.0------------
1991-01-26 3.4 4.0 2.5 0.5 80.0- 7.0 1.7---- 0.0------------
1991-01-25 0.4 3.3 -4.0 -6.4 89.0- 8.0 4.7---- 0.0------------
1991-01-24 1.9 4.0 -0.8 -5.0 79.5- 3.0 2.0---- 0.0------------
1991-01-23 0.5 1.3 -1.3 -3.4 84.5- 8.0 2.0---- 0.0------------
1991-01-22 1.4 2.8 0.1 -0.4 84.0- 8.0 2.0---- 0.0------------
1991-01-21 -0.1 1.0 -4.3 -6.0 94.5- 8.0 2.3---- 0.8------------
1991-01-20 -6.0 -4.2 -8.8-10.5 94.5- 6.3 2.7---- 0.3------------
1991-01-19 -4.3 2.2 -8.8-11.0 89.8- 0.7 1.3---- 0.0------------
1991-01-18 -3.3 4.0 -8.3-10.7 70.8- 0.0 1.7---- 0.0------------
1991-01-17 -4.7 1.5 -7.8-11.0 86.3- 0.3 1.7---- 0.0------------
1991-01-16 -4.5 -1.1 -6.8 -9.5 91.0- 2.3 1.3---- 0.0------------
1991-01-15 -0.9 1.8 -4.5 -6.7 91.0- 4.3 1.3---- 0.2------------
489.0 ms

 

Źródłem pochodzenia danych jest Instytut Meteorologii i Gospodarki Wodnej – Państwowy Instytut Badawczy. Dane Instytutu Meteorologii i Gospodarki Wodnej – Państwowego Instytutu Badawczego zostały przetworzone.

Dane źródłowe można odnaleźć na stronie https://dane.imgw.pl